createdAt,value
2018-05-15T00:00:17.132Z,18.72
2018-05-15T00:00:53.946Z,18.65
2018-05-15T00:01:29.272Z,18.73
2018-05-15T00:02:04.931Z,18.65
2018-05-15T00:02:41.224Z,18.58
2018-05-15T00:03:16.319Z,18.64
2018-05-15T00:03:51.666Z,18.55
2018-05-15T00:04:26.932Z,18.65
2018-05-15T00:05:02.775Z,18.61
2018-05-15T00:05:39.705Z,18.58
2018-05-15T00:06:15.496Z,18.64
2018-05-15T00:06:52.236Z,18.64
2018-05-15T00:07:27.647Z,18.54
2018-05-15T00:08:03.146Z,18.50
2018-05-15T00:08:39.209Z,18.54
2018-05-15T00:09:14.502Z,18.50
2018-05-15T00:09:50.230Z,18.50
2018-05-15T00:11:05.732Z,18.50
2018-05-15T00:11:41.110Z,18.52
2018-05-15T00:12:16.657Z,18.49
2018-05-15T00:12:51.918Z,18.50
2018-05-15T00:13:27.739Z,18.47
2018-05-15T00:14:03.441Z,18.47
2018-05-15T00:14:38.827Z,18.43
2018-05-15T00:15:14.291Z,18.43
2018-05-15T00:15:49.835Z,18.52
2018-05-15T00:16:24.980Z,18.47
2018-05-15T00:17:00.414Z,18.44
2018-05-15T00:17:36.728Z,18.58
2018-05-15T00:18:12.305Z,18.42
2018-05-15T00:18:47.797Z,18.44
2018-05-15T00:19:26.319Z,18.43
2018-05-15T00:20:03.276Z,18.50
2018-05-15T00:20:40.472Z,18.43
2018-05-15T00:21:16.001Z,18.39
2018-05-15T00:21:51.342Z,18.36
2018-05-15T00:22:26.907Z,18.34
2018-05-15T00:23:02.312Z,18.25
2018-05-15T00:23:37.440Z,18.34
2018-05-15T00:24:12.936Z,18.24
2018-05-15T00:24:49.423Z,18.24
2018-05-15T00:25:24.795Z,18.24
2018-05-15T00:26:00.284Z,18.27
2018-05-15T00:26:35.673Z,18.21
2018-05-15T00:27:10.899Z,18.22
2018-05-15T00:27:47.217Z,18.25
2018-05-15T00:28:22.338Z,18.17
2018-05-15T00:28:57.999Z,18.17
2018-05-15T00:29:33.448Z,18.15
2018-05-15T00:30:08.955Z,18.17
2018-05-15T00:30:45.353Z,18.15
2018-05-15T00:31:20.477Z,18.15
2018-05-15T00:31:55.863Z,18.15
2018-05-15T00:32:30.929Z,18.15
2018-05-15T00:33:06.605Z,18.10
2018-05-15T00:33:42.203Z,18.10
2018-05-15T00:34:17.711Z,18.12
2018-05-15T00:34:54.354Z,18.07
2018-05-15T00:35:29.832Z,18.13
2018-05-15T00:36:05.296Z,18.03
2018-05-15T00:36:41.256Z,18.00
2018-05-15T00:37:18.071Z,17.97
2018-05-15T00:37:53.417Z,18.02
2018-05-15T00:38:28.778Z,18.02
2018-05-15T00:39:03.976Z,17.95
2018-05-15T00:39:40.141Z,18.02
2018-05-15T00:40:15.636Z,18.00
2018-05-15T00:40:51.401Z,17.99
2018-05-15T00:41:26.650Z,17.87
2018-05-15T00:42:02.346Z,17.89
2018-05-15T00:42:38.282Z,18.03
2018-05-15T00:43:14.461Z,18.03
2018-05-15T00:43:49.735Z,17.92
2018-05-15T00:44:25.069Z,17.88
2018-05-15T00:45:00.708Z,17.85
2018-05-15T00:45:35.909Z,17.89
2018-05-15T00:46:11.488Z,17.91
2018-05-15T00:46:48.135Z,17.87
2018-05-15T00:47:23.798Z,17.78
2018-05-15T00:47:59.457Z,17.79
2018-05-15T00:48:34.691Z,17.88
2018-05-15T00:49:10.062Z,17.81
2018-05-15T00:49:47.020Z,17.87
2018-05-15T00:50:22.711Z,17.73
2018-05-15T00:50:58.483Z,17.71
2018-05-15T00:51:33.653Z,17.69
2018-05-15T00:52:09.505Z,17.59
2018-05-15T00:52:44.865Z,17.66
2018-05-15T00:53:20.245Z,17.67
2018-05-15T00:53:55.587Z,17.66
2018-05-15T00:54:31.293Z,17.64
2018-05-15T00:55:06.665Z,17.70
2018-05-15T00:55:42.133Z,17.62
2018-05-15T00:56:17.411Z,17.64
2018-05-15T00:56:52.890Z,17.64
2018-05-15T00:57:28.362Z,17.67
2018-05-15T00:58:03.775Z,17.63
2018-05-15T00:58:39.130Z,17.59
2018-05-15T00:59:14.982Z,17.63
2018-05-15T00:59:50.084Z,17.63
2018-05-15T01:00:25.411Z,17.66
2018-05-15T01:01:01.325Z,17.62
2018-05-15T01:01:36.870Z,17.67
2018-05-15T01:02:12.223Z,17.64
2018-05-15T01:02:47.616Z,17.55
2018-05-15T01:03:23.053Z,17.62
2018-05-15T01:03:59.120Z,17.57
2018-05-15T01:04:34.474Z,17.63
2018-05-15T01:05:09.880Z,17.66
2018-05-15T01:05:47.480Z,17.63
2018-05-15T01:06:22.968Z,17.57
2018-05-15T01:06:58.346Z,17.62
2018-05-15T01:07:33.751Z,17.62
2018-05-15T01:08:09.127Z,17.53
2018-05-15T01:08:44.829Z,17.50
2018-05-15T01:09:19.870Z,17.46
2018-05-15T01:09:55.328Z,17.50
2018-05-15T01:10:30.776Z,17.50
2018-05-15T01:11:06.346Z,17.51
2018-05-15T01:11:41.698Z,17.51
2018-05-15T01:12:17.226Z,17.50
2018-05-15T01:12:52.692Z,17.51
2018-05-15T01:13:28.320Z,17.43
2018-05-15T01:14:03.806Z,17.44
2018-05-15T01:14:39.034Z,17.43
2018-05-15T01:15:16.014Z,17.47
2018-05-15T01:15:51.505Z,17.46
2018-05-15T01:16:26.760Z,17.46
2018-05-15T01:17:02.290Z,17.32
2018-05-15T01:17:37.796Z,17.44
2018-05-15T01:18:13.091Z,17.46
2018-05-15T01:18:50.135Z,17.41
2018-05-15T01:19:23.721Z,17.40
2018-05-15T01:19:59.089Z,17.41
2018-05-15T01:20:34.406Z,17.41
2018-05-15T01:21:09.975Z,17.38
2018-05-15T01:21:45.635Z,17.36
2018-05-15T01:22:21.111Z,17.33
2018-05-15T01:22:56.491Z,17.36
2018-05-15T01:23:31.633Z,17.35
2018-05-15T01:24:06.883Z,17.32
2018-05-15T01:24:42.503Z,17.33
2018-05-15T01:25:17.857Z,17.41
2018-05-15T01:25:53.397Z,17.26
2018-05-15T01:26:29.161Z,17.36
2018-05-15T01:27:04.449Z,17.35
2018-05-15T01:27:40.111Z,17.28
2018-05-15T01:28:15.529Z,17.32
2018-05-15T01:28:50.908Z,17.29
2018-05-15T01:29:26.284Z,17.36
2018-05-15T01:30:01.636Z,17.23
2018-05-15T01:30:37.408Z,17.29
2018-05-15T01:31:12.659Z,17.30
2018-05-15T01:31:50.245Z,17.23
2018-05-15T01:32:25.837Z,17.22
2018-05-15T01:33:00.850Z,17.30
2018-05-15T01:33:36.705Z,17.25
2018-05-15T01:34:11.902Z,17.23
2018-05-15T01:34:48.087Z,17.26
2018-05-15T01:35:23.476Z,17.15
2018-05-15T01:36:00.781Z,17.20
2018-05-15T01:36:36.421Z,17.15
2018-05-15T01:37:12.258Z,17.20
2018-05-15T01:37:48.447Z,17.25
2018-05-15T01:38:23.911Z,17.22
2018-05-15T01:38:59.626Z,17.22
2018-05-15T01:39:35.124Z,17.22
2018-05-15T01:40:11.767Z,17.25
2018-05-15T01:40:47.098Z,17.20
2018-05-15T01:41:22.969Z,17.18
2018-05-15T01:41:59.127Z,17.23
2018-05-15T01:42:34.358Z,17.17
2018-05-15T01:43:10.150Z,17.23
2018-05-15T01:43:45.453Z,17.20
2018-05-15T01:44:20.527Z,17.13
2018-05-15T01:44:59.310Z,17.13
2018-05-15T01:45:35.866Z,17.18
2018-05-15T01:46:11.149Z,17.07
2018-05-15T01:46:52.367Z,17.28
2018-05-15T01:47:28.184Z,17.15
2018-05-15T01:48:04.653Z,17.18
2018-05-15T01:48:39.937Z,17.08
2018-05-15T01:49:16.714Z,17.25
2018-05-15T01:49:55.319Z,17.22
2018-05-15T01:50:30.763Z,17.10
2018-05-15T01:51:06.439Z,17.14
2018-05-15T01:51:41.737Z,17.18
2018-05-15T01:52:16.956Z,17.04
2018-05-15T01:52:55.482Z,17.08
2018-05-15T01:53:31.001Z,17.03
2018-05-15T01:54:06.508Z,17.14
2018-05-15T01:54:41.741Z,17.03
2018-05-15T01:55:17.273Z,17.08
2018-05-15T01:55:52.590Z,17.07
2018-05-15T01:56:29.414Z,17.03
2018-05-15T01:57:04.730Z,17.08
2018-05-15T01:57:41.160Z,17.11
2018-05-15T01:58:16.782Z,17.14
2018-05-15T01:58:53.247Z,16.99
2018-05-15T01:59:28.507Z,17.07
2018-05-15T02:00:04.857Z,17.13
2018-05-15T02:00:40.297Z,17.10
2018-05-15T02:01:15.695Z,17.10
2018-05-15T02:01:56.322Z,17.07
2018-05-15T02:02:31.738Z,17.08
2018-05-15T02:03:09.984Z,16.98
2018-05-15T02:03:48.350Z,17.03
2018-05-15T02:04:24.993Z,17.00
2018-05-15T02:05:02.600Z,16.98
2018-05-15T02:05:38.294Z,16.98
2018-05-15T02:06:15.564Z,16.95
2018-05-15T02:06:50.718Z,16.95
2018-05-15T02:07:27.779Z,16.98
2018-05-15T02:08:03.044Z,16.92
2018-05-15T02:08:38.568Z,16.89
2018-05-15T02:09:14.467Z,16.90
2018-05-15T02:09:49.752Z,16.89
2018-05-15T02:10:25.200Z,16.88
2018-05-15T02:11:00.698Z,16.78
2018-05-15T02:11:35.924Z,16.90
2018-05-15T02:12:11.415Z,16.90
2018-05-15T02:12:48.629Z,16.95
2018-05-15T02:13:27.496Z,16.90
2018-05-15T02:14:02.825Z,16.90
2018-05-15T02:14:42.311Z,16.86
2018-05-15T02:15:19.172Z,16.85
2018-05-15T02:15:54.855Z,16.81
2018-05-15T02:16:33.501Z,16.80
2018-05-15T02:17:09.050Z,16.93
2018-05-15T02:17:47.464Z,16.85
2018-05-15T02:18:24.092Z,16.81
2018-05-15T02:18:59.508Z,16.86
2018-05-15T02:19:34.771Z,16.80
2018-05-15T02:20:09.766Z,16.77
2018-05-15T02:20:46.123Z,16.85
2018-05-15T02:21:22.897Z,16.83
2018-05-15T02:21:58.063Z,16.74
2018-05-15T02:22:33.306Z,16.86
2018-05-15T02:23:11.964Z,16.70
2018-05-15T02:23:47.303Z,16.77
2018-05-15T02:24:22.597Z,16.73
2018-05-15T02:24:57.866Z,16.65
2018-05-15T02:25:33.348Z,16.74
2018-05-15T02:26:10.129Z,16.73
2018-05-15T02:26:49.208Z,16.63
2018-05-15T02:27:26.746Z,16.63
2018-05-15T02:28:02.418Z,16.70
2018-05-15T02:28:39.317Z,16.68
2018-05-15T02:29:14.641Z,16.67
2018-05-15T02:29:49.727Z,16.68
2018-05-15T02:30:26.777Z,16.63
2018-05-15T02:31:03.237Z,16.68
2018-05-15T02:31:38.807Z,16.58
2018-05-15T02:32:13.895Z,16.58
2018-05-15T02:32:49.327Z,16.65
2018-05-15T02:33:25.387Z,16.65
2018-05-15T02:34:01.773Z,16.68
2018-05-15T02:34:37.387Z,16.63
2018-05-15T02:35:12.961Z,16.60
2018-05-15T02:35:51.364Z,16.59
2018-05-15T02:36:26.701Z,16.55
2018-05-15T02:37:02.149Z,16.59
2018-05-15T02:37:39.812Z,16.65
2018-05-15T02:38:18.967Z,16.62
2018-05-15T02:38:54.266Z,16.58
2018-05-15T02:39:30.507Z,16.58
2018-05-15T02:40:06.216Z,16.49
2018-05-15T02:40:42.045Z,16.63
2018-05-15T02:41:17.610Z,16.58
2018-05-15T02:41:53.301Z,16.60
2018-05-15T02:42:28.558Z,16.60
2018-05-15T02:43:04.102Z,16.65
2018-05-15T02:43:39.495Z,16.67
2018-05-15T02:44:14.757Z,16.58
2018-05-15T02:44:50.162Z,16.59
2018-05-15T02:45:27.373Z,16.56
2018-05-15T02:46:02.906Z,16.53
2018-05-15T02:46:38.590Z,16.52
2018-05-15T02:47:14.073Z,16.50
2018-05-15T02:47:49.487Z,16.56
2018-05-15T02:48:26.223Z,16.48
2018-05-15T02:49:01.936Z,16.58
2018-05-15T02:49:37.596Z,16.58
2018-05-15T02:50:13.056Z,16.55
2018-05-15T02:50:51.906Z,16.58
2018-05-15T02:51:27.279Z,16.55
2018-05-15T02:52:02.710Z,16.49
2018-05-15T02:52:37.902Z,16.49
2018-05-15T02:53:13.353Z,16.52
2018-05-15T02:53:48.667Z,16.48
2018-05-15T02:54:26.623Z,16.42
2018-05-15T02:55:04.957Z,16.45
2018-05-15T02:55:43.353Z,16.41
2018-05-15T02:56:18.283Z,16.48
2018-05-15T02:56:53.477Z,16.41
2018-05-15T02:57:28.848Z,16.42
2018-05-15T02:58:04.322Z,16.45
2018-05-15T02:58:39.851Z,16.42
2018-05-15T02:59:15.141Z,16.45
2018-05-15T02:59:50.593Z,16.49
2018-05-15T03:00:26.342Z,16.41
2018-05-15T03:01:01.811Z,16.52
2018-05-15T03:01:36.923Z,16.49
2018-05-15T03:02:12.435Z,16.48
2018-05-15T03:02:47.807Z,16.41
2018-05-15T03:03:23.396Z,16.49
2018-05-15T03:03:58.643Z,16.42
2018-05-15T03:04:33.839Z,16.49
2018-05-15T03:05:09.464Z,16.34
2018-05-15T03:05:44.975Z,16.41
2018-05-15T03:06:20.421Z,16.37
2018-05-15T03:06:55.690Z,16.42
2018-05-15T03:07:31.161Z,16.34
2018-05-15T03:08:06.447Z,16.30
2018-05-15T03:08:41.989Z,16.34
2018-05-15T03:09:17.349Z,16.22
2018-05-15T03:09:52.680Z,16.31
2018-05-15T03:10:28.317Z,16.38
2018-05-15T03:11:03.417Z,16.30
2018-05-15T03:11:38.831Z,16.31
2018-05-15T03:12:14.245Z,16.31
2018-05-15T03:12:49.763Z,16.37
2018-05-15T03:13:25.302Z,16.25
2018-05-15T03:14:00.407Z,16.31
2018-05-15T03:14:35.823Z,16.26
2018-05-15T03:15:11.226Z,16.27
2018-05-15T03:15:47.609Z,16.23
2018-05-15T03:16:23.144Z,16.22
2018-05-15T03:16:58.572Z,16.31
2018-05-15T03:17:33.927Z,16.20
2018-05-15T03:18:09.217Z,16.18
2018-05-15T03:18:44.717Z,16.20
2018-05-15T03:19:20.267Z,16.14
2018-05-15T03:19:55.378Z,16.15
2018-05-15T03:20:30.756Z,16.15
2018-05-15T03:21:05.968Z,16.06
2018-05-15T03:21:41.080Z,16.03
2018-05-15T03:22:16.511Z,16.01
2018-05-15T03:22:51.602Z,16.11
2018-05-15T03:23:26.821Z,16.07
2018-05-15T03:24:02.043Z,16.07
2018-05-15T03:24:37.256Z,16.14
2018-05-15T03:25:12.696Z,16.16
2018-05-15T03:25:48.765Z,16.16
2018-05-15T03:26:24.411Z,16.09
2018-05-15T03:26:59.820Z,16.14
2018-05-15T03:27:35.443Z,16.15
2018-05-15T03:28:10.900Z,16.15
2018-05-15T03:28:47.240Z,16.07
2018-05-15T03:29:22.685Z,16.04
2018-05-15T03:29:58.262Z,16.16
2018-05-15T03:30:33.607Z,16.15
2018-05-15T03:31:09.036Z,16.03
2018-05-15T03:31:44.327Z,16.16
2018-05-15T03:32:19.587Z,16.14
2018-05-15T03:32:54.979Z,16.20
2018-05-15T03:33:30.417Z,16.03
2018-05-15T03:34:05.772Z,16.06
2018-05-15T03:34:41.023Z,16.11
2018-05-15T03:35:16.475Z,16.04
2018-05-15T03:35:51.883Z,16.01
2018-05-15T03:36:27.427Z,16.01
2018-05-15T03:37:02.934Z,16.03
2018-05-15T03:37:38.390Z,16.03
2018-05-15T03:38:13.610Z,15.96
2018-05-15T03:38:49.047Z,15.99
2018-05-15T03:39:24.301Z,16.06
2018-05-15T03:39:59.803Z,16.06
2018-05-15T03:40:35.387Z,16.00
2018-05-15T03:41:10.619Z,15.97
2018-05-15T03:41:46.044Z,16.11
2018-05-15T03:42:21.560Z,16.06
2018-05-15T03:42:56.951Z,16.00
2018-05-15T03:43:32.635Z,16.04
2018-05-15T03:44:08.199Z,16.04
2018-05-15T03:44:43.974Z,15.96
2018-05-15T03:45:19.314Z,16.06
2018-05-15T03:45:55.209Z,16.09
2018-05-15T03:46:30.578Z,16.14
2018-05-15T03:47:06.038Z,16.01
2018-05-15T03:47:41.376Z,16.01
2018-05-15T03:48:17.021Z,15.96
2018-05-15T03:48:52.573Z,15.96
2018-05-15T03:49:28.283Z,16.04
2018-05-15T03:50:03.639Z,15.99
2018-05-15T03:50:40.022Z,16.00
2018-05-15T03:51:15.388Z,16.03
2018-05-15T03:51:50.628Z,16.00
2018-05-15T03:52:25.901Z,16.03
2018-05-15T03:53:01.394Z,16.01
2018-05-15T03:53:36.982Z,15.89
2018-05-15T03:54:12.076Z,15.99
2018-05-15T03:54:47.505Z,16.00
2018-05-15T03:55:23.194Z,15.88
2018-05-15T03:55:58.619Z,15.97
2018-05-15T03:56:34.290Z,16.01
2018-05-15T03:57:09.826Z,15.92
2018-05-15T03:57:45.158Z,16.06
2018-05-15T03:58:20.673Z,16.07
2018-05-15T03:58:56.030Z,16.01
2018-05-15T03:59:31.474Z,15.93
2018-05-15T04:00:07.052Z,16.09
2018-05-15T04:00:46.000Z,16.03
2018-05-15T04:01:21.379Z,15.99
2018-05-15T04:01:56.650Z,15.96
2018-05-15T04:02:32.118Z,15.99
2018-05-15T04:03:07.481Z,16.00
2018-05-15T04:03:42.678Z,15.96
2018-05-15T04:04:18.454Z,16.04
2018-05-15T04:04:54.239Z,15.99
2018-05-15T04:05:29.688Z,16.00
2018-05-15T04:06:04.897Z,15.99
2018-05-15T04:06:42.662Z,16.01
2018-05-15T04:07:18.350Z,15.96
2018-05-15T04:07:54.218Z,15.96
2018-05-15T04:08:29.988Z,15.96
2018-05-15T04:09:05.253Z,15.94
2018-05-15T04:09:40.547Z,15.93
2018-05-15T04:10:15.572Z,15.94
2018-05-15T04:10:51.229Z,15.89
2018-05-15T04:11:26.478Z,15.97
2018-05-15T04:12:02.115Z,15.88
2018-05-15T04:12:37.617Z,16.06
2018-05-15T04:13:12.999Z,15.92
2018-05-15T04:13:48.363Z,15.93
2018-05-15T04:14:23.932Z,16.00
2018-05-15T04:14:59.229Z,15.89
2018-05-15T04:15:34.592Z,15.96
2018-05-15T04:16:10.012Z,15.93
2018-05-15T04:16:45.637Z,15.92
2018-05-15T04:17:20.853Z,15.94
2018-05-15T04:17:56.208Z,15.93
2018-05-15T04:18:31.726Z,15.94
2018-05-15T04:19:07.136Z,15.94
2018-05-15T04:19:42.603Z,15.85
2018-05-15T04:20:17.729Z,15.93
2018-05-15T04:20:52.920Z,15.93
2018-05-15T04:21:29.982Z,15.97
2018-05-15T04:22:06.414Z,15.86
2018-05-15T04:22:41.963Z,15.93
2018-05-15T04:23:17.100Z,15.97
2018-05-15T04:23:52.716Z,15.88
2018-05-15T04:24:28.356Z,15.93
2018-05-15T04:25:03.724Z,15.78
2018-05-15T04:25:39.452Z,15.75
2018-05-15T04:26:14.892Z,15.74
2018-05-15T04:26:50.978Z,15.70
2018-05-15T04:27:26.200Z,15.68
2018-05-15T04:28:01.943Z,15.79
2018-05-15T04:28:38.015Z,15.79
2018-05-15T04:29:13.480Z,15.76
2018-05-15T04:29:48.805Z,15.79
2018-05-15T04:30:24.439Z,15.82
2018-05-15T04:30:59.759Z,15.78
2018-05-15T04:31:35.218Z,15.79
2018-05-15T04:32:10.680Z,15.82
2018-05-15T04:32:46.134Z,15.78
2018-05-15T04:33:21.738Z,15.78
2018-05-15T04:33:57.283Z,15.72
2018-05-15T04:34:32.466Z,15.75
2018-05-15T04:35:07.713Z,15.81
2018-05-15T04:35:43.303Z,15.84
2018-05-15T04:36:18.647Z,15.88
2018-05-15T04:36:54.243Z,15.85
2018-05-15T04:37:29.311Z,15.96
2018-05-15T04:38:04.566Z,15.97
2018-05-15T04:38:40.003Z,15.94
2018-05-15T04:39:16.009Z,15.94
2018-05-15T04:39:51.635Z,15.85
2018-05-15T04:40:27.696Z,15.88
2018-05-15T04:41:03.159Z,15.94
2018-05-15T04:41:38.600Z,15.97
2018-05-15T04:42:14.121Z,15.94
2018-05-15T04:42:51.237Z,15.96
2018-05-15T04:43:26.592Z,15.93
2018-05-15T04:44:02.025Z,15.93
2018-05-15T04:44:37.172Z,15.85
2018-05-15T04:45:12.554Z,15.92
2018-05-15T04:45:48.334Z,15.96
2018-05-15T04:46:23.691Z,15.92
2018-05-15T04:47:01.570Z,15.99
2018-05-15T04:47:36.937Z,15.96
2018-05-15T04:48:12.513Z,15.99
2018-05-15T04:48:47.861Z,15.97
2018-05-15T04:49:23.317Z,15.94
2018-05-15T04:49:58.742Z,15.93
2018-05-15T04:50:34.210Z,15.96
2018-05-15T04:51:09.449Z,15.93
2018-05-15T04:51:44.808Z,15.96
2018-05-15T04:52:20.235Z,16.00
2018-05-15T04:52:55.923Z,16.04
2018-05-15T04:53:31.611Z,15.99
2018-05-15T04:54:06.928Z,15.99
2018-05-15T04:54:44.293Z,16.00
2018-05-15T04:55:19.534Z,15.94
2018-05-15T04:55:54.815Z,15.97
2018-05-15T04:56:30.781Z,16.03
2018-05-15T04:57:06.079Z,15.99
2018-05-15T04:57:41.084Z,16.06
2018-05-15T04:58:16.447Z,16.12
2018-05-15T04:58:52.201Z,16.01
2018-05-15T04:59:27.881Z,16.11
2018-05-15T05:00:03.393Z,16.14
2018-05-15T05:00:39.531Z,16.09
2018-05-15T05:01:17.604Z,16.20
2018-05-15T05:01:54.099Z,16.20
2018-05-15T05:02:29.542Z,16.26
2018-05-15T05:03:06.902Z,16.20
2018-05-15T05:03:42.573Z,16.16
2018-05-15T05:04:17.902Z,16.18
2018-05-15T05:04:55.843Z,16.18
2018-05-15T05:05:31.058Z,16.16
2018-05-15T05:06:06.263Z,16.25
2018-05-15T05:06:41.784Z,16.25
2018-05-15T05:07:17.091Z,16.27
2018-05-15T05:07:52.351Z,16.35
2018-05-15T05:08:27.920Z,16.26
2018-05-15T05:09:03.396Z,16.27
2018-05-15T05:09:39.356Z,16.44
2018-05-15T05:10:14.695Z,16.33
2018-05-15T05:10:50.199Z,16.50
2018-05-15T05:11:28.326Z,16.48
2018-05-15T05:12:03.781Z,16.44
2018-05-15T05:12:39.415Z,16.50
2018-05-15T05:13:14.928Z,16.42
2018-05-15T05:13:50.277Z,16.45
2018-05-15T05:14:26.864Z,16.56
2018-05-15T05:15:04.268Z,16.48
2018-05-15T05:15:39.697Z,16.52
2018-05-15T05:16:16.109Z,16.58
2018-05-15T05:16:51.566Z,16.53
2018-05-15T05:17:27.226Z,16.62
2018-05-15T05:18:02.639Z,16.58
2018-05-15T05:18:38.067Z,16.67
2018-05-15T05:19:13.516Z,16.56
2018-05-15T05:19:48.823Z,16.70
2018-05-15T05:20:24.349Z,16.77
2018-05-15T05:21:03.003Z,16.74
2018-05-15T05:21:38.175Z,16.67
2018-05-15T05:22:13.843Z,16.75
2018-05-15T05:22:49.152Z,16.90
2018-05-15T05:23:24.510Z,16.77
2018-05-15T05:23:59.831Z,16.81
2018-05-15T05:24:35.028Z,16.78
2018-05-15T05:25:10.405Z,16.81
2018-05-15T05:25:49.250Z,16.77
2018-05-15T05:26:25.046Z,16.85
2018-05-15T05:27:00.367Z,16.89
2018-05-15T05:27:35.706Z,16.68
2018-05-15T05:28:10.812Z,16.78
2018-05-15T05:28:46.474Z,16.81
2018-05-15T05:29:21.845Z,16.85
2018-05-15T05:29:57.331Z,16.92
2018-05-15T05:30:32.519Z,16.96
2018-05-15T05:31:08.349Z,17.04
2018-05-15T05:31:46.304Z,16.96
2018-05-15T05:32:23.110Z,16.98
2018-05-15T05:32:58.356Z,17.04
2018-05-15T05:33:33.988Z,17.20
2018-05-15T05:34:09.775Z,17.10
2018-05-15T05:34:47.050Z,17.13
2018-05-15T05:35:22.392Z,17.10
2018-05-15T05:35:57.831Z,17.26
2018-05-15T05:36:33.129Z,17.29
2018-05-15T05:37:08.621Z,17.26
2018-05-15T05:37:45.075Z,17.33
2018-05-15T05:38:20.577Z,17.29
2018-05-15T05:38:56.911Z,17.36
2018-05-15T05:39:32.245Z,17.41
2018-05-15T05:40:08.233Z,17.53
2018-05-15T05:40:44.998Z,17.62
2018-05-15T05:41:20.427Z,17.64
2018-05-15T05:41:55.640Z,17.63
2018-05-15T05:42:31.162Z,17.71
2018-05-15T05:43:06.682Z,17.74
2018-05-15T05:43:41.996Z,17.76
2018-05-15T05:44:17.188Z,17.71
2018-05-15T05:44:52.701Z,17.91
2018-05-15T05:45:28.293Z,17.81
2018-05-15T05:46:03.578Z,17.87
2018-05-15T05:46:39.035Z,17.87
2018-05-15T05:47:14.254Z,17.89
2018-05-15T05:47:49.435Z,17.92
2018-05-15T05:48:25.217Z,17.99
2018-05-15T05:49:00.751Z,17.92
2018-05-15T05:49:36.177Z,17.99
2018-05-15T05:50:11.762Z,18.09
2018-05-15T05:50:51.487Z,18.13
2018-05-15T05:51:29.171Z,18.17
2018-05-15T05:52:05.613Z,18.25
2018-05-15T05:52:41.290Z,18.28
2018-05-15T05:53:16.930Z,18.29
2018-05-15T05:53:55.705Z,18.33
2018-05-15T05:54:34.035Z,18.36
2018-05-15T05:55:09.521Z,18.33
2018-05-15T05:55:44.874Z,18.40
2018-05-15T05:56:20.384Z,18.47
2018-05-15T05:56:57.040Z,18.46
2018-05-15T05:57:32.420Z,18.52
2018-05-15T05:58:07.787Z,18.52
2018-05-15T05:58:43.074Z,18.54
2018-05-15T05:59:18.313Z,18.58
2018-05-15T05:59:53.713Z,18.62
2018-05-15T06:00:28.913Z,18.70
2018-05-15T06:01:04.770Z,18.67
2018-05-15T06:01:40.216Z,18.80
2018-05-15T06:02:15.544Z,18.82
2018-05-15T06:02:51.252Z,18.90
2018-05-15T06:03:26.928Z,18.94
2018-05-15T06:04:02.272Z,19.05
2018-05-15T06:04:37.798Z,18.98
2018-05-15T06:05:13.177Z,19.08
2018-05-15T06:05:48.478Z,19.05
2018-05-15T06:06:23.797Z,19.05
2018-05-15T06:06:59.490Z,19.06
2018-05-15T06:07:34.922Z,19.05
2018-05-15T06:08:10.401Z,19.18
2018-05-15T06:08:45.945Z,19.13
2018-05-15T06:09:21.242Z,19.21
2018-05-15T06:09:56.640Z,19.35
2018-05-15T06:10:32.093Z,19.40
2018-05-15T06:11:07.558Z,19.48
2018-05-15T06:11:43.163Z,19.50
2018-05-15T06:12:18.442Z,19.53
2018-05-15T06:12:53.910Z,19.58
2018-05-15T06:13:29.256Z,19.57
2018-05-15T06:14:04.744Z,19.65
2018-05-15T06:14:40.281Z,19.54
2018-05-15T06:15:15.739Z,19.58
2018-05-15T06:15:51.662Z,19.51
2018-05-15T06:16:27.060Z,19.69
2018-05-15T06:17:02.389Z,19.73
2018-05-15T06:17:37.587Z,19.66
2018-05-15T06:18:13.039Z,19.63
2018-05-15T06:18:48.541Z,19.69
2018-05-15T06:19:23.907Z,19.80
2018-05-15T06:19:59.152Z,19.86
2018-05-15T06:20:34.194Z,19.79
2018-05-15T06:21:09.672Z,19.80
2018-05-15T06:21:45.262Z,19.86
2018-05-15T06:22:20.653Z,19.84
2018-05-15T06:22:56.018Z,19.95
2018-05-15T06:23:31.392Z,19.97
2018-05-15T06:24:06.998Z,19.98
2018-05-15T06:24:42.839Z,20.08
2018-05-15T06:25:18.460Z,20.25
2018-05-15T06:25:57.782Z,20.31
2018-05-15T06:26:33.232Z,20.35
2018-05-15T06:27:08.678Z,20.50
2018-05-15T06:27:45.358Z,20.54
2018-05-15T06:28:20.821Z,20.51
2018-05-15T06:28:56.182Z,20.43
2018-05-15T06:29:31.649Z,20.53
2018-05-15T06:30:07.229Z,20.51
2018-05-15T06:30:46.981Z,20.71
2018-05-15T06:31:22.468Z,20.95
2018-05-15T06:31:57.506Z,21.02
2018-05-15T06:32:32.800Z,21.24
2018-05-15T06:33:08.367Z,21.45
2018-05-15T06:33:43.887Z,21.66
2018-05-15T06:34:19.455Z,21.75
2018-05-15T06:34:54.707Z,21.81
2018-05-15T06:35:30.363Z,22.04
2018-05-15T06:36:05.556Z,22.35
2018-05-15T06:36:42.513Z,22.43
2018-05-15T06:37:17.696Z,22.78
2018-05-15T06:37:53.256Z,22.99
2018-05-15T06:38:28.692Z,23.38
2018-05-15T06:39:04.094Z,23.47
2018-05-15T06:39:39.468Z,23.14
2018-05-15T06:40:15.029Z,23.34
2018-05-15T06:40:53.788Z,23.46
2018-05-15T06:41:32.218Z,23.26
2018-05-15T06:42:10.761Z,23.76
2018-05-15T06:42:49.227Z,23.83
2018-05-15T06:43:24.642Z,23.82
2018-05-15T06:44:01.615Z,23.98
2018-05-15T06:46:38.637Z,24.31
2018-05-15T06:47:14.090Z,24.59
2018-05-15T06:47:49.216Z,24.26
2018-05-15T06:48:24.756Z,24.26
2018-05-15T06:49:01.750Z,24.41
2018-05-15T06:49:37.965Z,24.90
2018-05-15T06:50:14.350Z,24.76
2018-05-15T06:50:51.577Z,25.01
2018-05-15T06:51:30.225Z,25.12
2018-05-15T06:52:05.626Z,25.01
2018-05-15T06:52:41.179Z,25.05
2018-05-15T06:53:16.341Z,25.12
2018-05-15T06:53:52.395Z,25.47
2018-05-15T06:54:27.943Z,25.28
2018-05-15T06:55:03.104Z,25.72
2018-05-15T06:55:38.453Z,25.53
2018-05-15T06:56:16.622Z,25.68
2018-05-15T06:56:52.044Z,26.09
2018-05-15T06:57:27.356Z,26.01
2018-05-15T06:58:02.850Z,26.31
2018-05-15T06:58:40.681Z,26.27
2018-05-15T06:59:16.202Z,26.18
2018-05-15T06:59:51.489Z,26.04
2018-05-15T07:00:26.887Z,25.80
2018-05-15T07:01:05.364Z,25.99
2018-05-15T07:01:44.493Z,26.32
2018-05-15T07:02:19.846Z,26.25
2018-05-15T07:02:58.296Z,25.87
2018-05-15T07:03:33.727Z,25.93
2018-05-15T07:04:09.064Z,25.31
2018-05-15T07:04:44.189Z,25.24
2018-05-15T07:05:19.265Z,25.30
2018-05-15T07:05:57.880Z,24.98
2018-05-15T07:06:36.218Z,25.44
2018-05-15T07:07:11.585Z,25.56
2018-05-15T07:07:49.400Z,25.80
2018-05-15T07:08:24.699Z,25.80
2018-05-15T07:09:03.561Z,25.93
2018-05-15T07:09:39.101Z,26.05
2018-05-15T07:10:14.567Z,25.98
2018-05-15T07:10:50.080Z,26.31
2018-05-15T07:11:25.274Z,25.94
2018-05-15T07:12:00.943Z,25.56
2018-05-15T07:12:39.316Z,25.74
2018-05-15T07:13:17.255Z,25.42
2018-05-15T07:13:52.703Z,25.15
2018-05-15T07:14:28.238Z,25.49
2018-05-15T07:15:03.437Z,25.42
2018-05-15T07:15:39.599Z,25.30
2018-05-15T07:16:14.960Z,25.43
2018-05-15T07:16:54.357Z,25.44
2018-05-15T07:17:31.793Z,25.10
2018-05-15T07:18:08.907Z,25.12
2018-05-15T07:18:44.303Z,25.10
2018-05-15T07:19:19.643Z,25.25
2018-05-15T07:19:55.013Z,25.28
2018-05-15T07:20:30.217Z,25.25
2018-05-15T07:21:05.699Z,25.27
2018-05-15T07:21:41.263Z,25.25
2018-05-15T07:22:16.356Z,25.37
2018-05-15T07:22:51.810Z,25.54
2018-05-15T07:23:27.585Z,25.61
2018-05-15T07:24:02.975Z,25.65
2018-05-15T07:24:38.392Z,25.37
2018-05-15T07:25:15.697Z,25.52
2018-05-15T07:25:55.391Z,25.44
2018-05-15T07:26:30.720Z,25.72
2018-05-15T07:27:06.134Z,25.77
2018-05-15T07:27:47.270Z,25.56
2018-05-15T07:28:23.908Z,25.15
2018-05-15T07:29:01.653Z,25.35
2018-05-15T07:29:37.115Z,25.12
2018-05-15T07:30:12.423Z,25.32
2018-05-15T07:30:47.634Z,25.72
2018-05-15T07:31:22.827Z,25.86
2018-05-15T07:31:58.306Z,26.02
2018-05-15T07:32:36.309Z,26.01
2018-05-15T07:33:11.590Z,25.99
2018-05-15T07:33:50.969Z,26.04
2018-05-15T07:34:26.527Z,26.17
2018-05-15T07:35:01.753Z,25.93
2018-05-15T07:35:40.266Z,26.15
2018-05-15T07:36:15.800Z,25.98
2018-05-15T07:36:51.100Z,25.83
2018-05-15T07:37:26.630Z,26.02
2018-05-15T07:38:02.389Z,26.11
2018-05-15T07:38:38.321Z,26.35
2018-05-15T07:39:13.792Z,26.18
2018-05-15T07:39:49.260Z,26.24
2018-05-15T07:40:24.682Z,26.32
2018-05-15T07:41:02.971Z,26.46
2018-05-15T07:41:38.841Z,26.58
2018-05-15T07:42:14.171Z,26.58
2018-05-15T07:42:52.484Z,26.58
2018-05-15T07:43:27.716Z,26.36
2018-05-15T07:44:03.460Z,26.68